Time;durP1;ratioP1;P1;durP2;ratioP2;P2;SDS_P1;SDS_P2;PMS_P1;PMS_P2;Temp;Humidity;BMP_temperature;BMP_pressure;BME280_temperature;BME280_humidity;BME280_pressure;Samples;Min_cycle;Max_cycle;Signal;HPM_P1;HPM_P2
2021/05/23 00:02:24;;;;;;;2.60;1.50;;;;;;;;;;4973940;28;20225;-86
2021/05/23 00:04:50;;;;;;;2.23;1.20;;;;;;;;;;4969321;28;20449;-86
2021/05/23 00:07:16;;;;;;;2.67;1.30;;;;;;;;;;4973216;28;20228;-86
2021/05/23 00:09:42;;;;;;;1.40;1.30;;;;;;;;;;4961181;28;20176;-85
2021/05/23 00:12:12;;;;;;;2.07;1.40;;;;;;;;;;4974098;28;20279;-85
2021/05/23 00:14:38;;;;;;;1.38;1.25;;;;;;;;;;4997647;28;20513;-85
2021/05/23 00:17:05;;;;;;;1.10;1.00;;;;;;;;;;5031562;28;20613;-85
2021/05/23 00:19:31;;;;;;;1.33;1.10;;;;;;;;;;4953213;28;20184;-86
2021/05/23 00:21:57;;;;;;;1.50;1.30;;;;;;;;;;4966539;28;20210;-86
2021/05/23 00:24:24;;;;;;;1.33;1.10;;;;;;;;;;4971957;28;20215;-86
2021/05/23 00:26:50;;;;;;;1.10;1.00;;;;;;;;;;4969392;28;20203;-86
2021/05/23 00:29:16;;;;;;;0.87;0.87;;;;;;;;;;4973699;28;20191;-85
2021/05/23 00:31:43;;;;;;;1.03;0.93;;;;;;;;;;4975269;28;20187;-86
2021/05/23 00:34:09;;;;;;;1.47;1.30;;;;;;;;;;4985703;28;20538;-87
2021/05/23 00:36:35;;;;;;;1.67;1.00;;;;;;;;;;4973367;28;20180;-86
2021/05/23 00:39:01;;;;;;;2.37;1.10;;;;;;;;;;5005106;28;20188;-86
2021/05/23 00:41:27;;;;;;;1.40;1.10;;;;;;;;;;4973255;28;20195;-86
2021/05/23 00:43:53;;;;;;;1.00;0.90;;;;;;;;;;4970251;28;20269;-86
2021/05/23 00:46:19;;;;;;;1.70;1.10;;;;;;;;;;4972532;28;20259;-86
2021/05/23 00:48:45;;;;;;;1.00;1.00;;;;;;;;;;4968895;28;20208;-86
2021/05/23 00:51:11;;;;;;;1.17;1.10;;;;;;;;;;4974061;28;20259;-87
2021/05/23 00:53:37;;;;;;;1.67;1.10;;;;;;;;;;4973532;28;20237;-86
2021/05/23 00:56:03;;;;;;;2.13;1.37;;;;;;;;;;4971659;28;20630;-87
2021/05/23 00:58:29;;;;;;;1.50;1.30;;;;;;;;;;4999851;28;20184;-87
2021/05/23 01:00:55;;;;;;;1.23;1.00;;;;;;;;;;4965863;28;20279;-87
2021/05/23 01:03:28;;;;;;;1.90;1.48;;;;;;;;;;4973669;28;20446;-87
2021/05/23 01:05:58;;;;;;;2.17;1.97;;;;;;;;;;4960073;28;20222;-87
2021/05/23 01:08:25;;;;;;;2.40;1.20;;;;;;;;;;4980021;28;20536;-87
2021/05/23 01:11:01;;;;;;;1.40;1.30;;;;;;;;;;4975175;28;20329;-87
2021/05/23 01:13:51;;;;;;;1.40;1.30;;;;;;;;;;4980462;28;20191;-87
2021/05/23 01:16:22;;;;;;;1.13;1.03;;;;;;;;;;5020470;28;20222;-87
2021/05/23 01:18:57;;;;;;;1.50;1.40;;;;;;;;;;4985974;28;20634;-87
2021/05/23 01:21:23;;;;;;;1.90;1.37;;;;;;;;;;4974480;28;20175;-86
2021/05/23 01:24:16;;;;;;;1.50;1.40;;;;;;;;;;4980372;28;20208;-87
2021/05/23 01:26:48;;;;;;;1.43;1.30;;;;;;;;;;4941052;28;20191;-87
2021/05/23 01:29:14;;;;;;;1.83;1.50;;;;;;;;;;4977428;28;20215;-86
2021/05/23 01:31:41;;;;;;;2.83;1.80;;;;;;;;;;5029575;28;20627;-86
2021/05/23 01:34:09;;;;;;;2.13;1.60;;;;;;;;;;4979284;28;20207;-86
2021/05/23 01:36:36;;;;;;;2.27;1.83;;;;;;;;;;4976065;28;20188;-86
2021/05/23 01:39:04;;;;;;;2.00;1.70;;;;;;;;;;4976511;28;20623;-86
2021/05/23 01:41:30;;;;;;;2.33;1.67;;;;;;;;;;4974865;28;20184;-86
2021/05/23 01:43:57;;;;;;;2.63;1.37;;;;;;;;;;4993350;28;20199;-87
2021/05/23 01:46:23;;;;;;;4.07;1.90;;;;;;;;;;5076004;28;20277;-87
2021/05/23 01:48:50;;;;;;;2.33;1.40;;;;;;;;;;4985341;28;20187;-86
2021/05/23 01:51:16;;;;;;;2.07;1.63;;;;;;;;;;4987917;28;20172;-86
2021/05/23 01:53:42;;;;;;;2.17;1.63;;;;;;;;;;4979775;28;20243;-87
2021/05/23 01:56:09;;;;;;;1.40;1.30;;;;;;;;;;4969259;28;20307;-86
2021/05/23 01:58:36;;;;;;;1.77;1.67;;;;;;;;;;4980008;28;20240;-86
2021/05/23 02:01:02;;;;;;;1.70;1.60;;;;;;;;;;4975828;28;20190;-86
2021/05/23 02:03:28;;;;;;;2.27;1.50;;;;;;;;;;4966151;28;20242;-86
2021/05/23 02:05:55;;;;;;;1.40;1.30;;;;;;;;;;4971694;28;20176;-86
2021/05/23 02:08:23;;;;;;;3.17;1.73;;;;;;;;;;4973428;28;20273;-86
2021/05/23 02:10:50;;;;;;;2.53;1.47;;;;;;;;;;4982889;28;20184;-86
2021/05/23 02:13:16;;;;;;;2.43;1.60;;;;;;;;;;4968197;28;20181;-86
2021/05/23 02:15:42;;;;;;;2.23;1.40;;;;;;;;;;5039951;28;20242;-86
2021/05/23 02:18:09;;;;;;;1.77;1.50;;;;;;;;;;5017216;28;20196;-86
2021/05/23 02:20:35;;;;;;;3.77;1.80;;;;;;;;;;4974065;28;20176;-86
2021/05/23 02:23:04;;;;;;;3.40;1.73;;;;;;;;;;4976786;28;20223;-86
2021/05/23 02:25:30;;;;;;;2.80;1.60;;;;;;;;;;4970979;28;20214;-86
2021/05/23 02:27:58;;;;;;;2.10;1.60;;;;;;;;;;4973474;28;20180;-86
2021/05/23 02:30:29;;;;;;;1.60;1.50;;;;;;;;;;4974195;28;20262;-86
2021/05/23 02:32:56;;;;;;;2.40;1.47;;;;;;;;;;4972098;28;20280;-86
2021/05/23 02:35:24;;;;;;;2.93;1.60;;;;;;;;;;4967777;28;20192;-86
2021/05/23 02:37:50;;;;;;;1.73;1.60;;;;;;;;;;5011181;28;20184;-86
2021/05/23 02:40:18;;;;;;;1.50;1.40;;;;;;;;;;4953834;28;20234;-86
2021/05/23 02:42:44;;;;;;;1.70;1.60;;;;;;;;;;4978542;28;20275;-86
2021/05/23 02:45:12;;;;;;;1.87;1.30;;;;;;;;;;5016458;28;20200;-86
2021/05/23 02:47:40;;;;;;;1.53;1.40;;;;;;;;;;5039873;28;20341;-86
2021/05/23 02:50:08;;;;;;;2.17;1.97;;;;;;;;;;4973981;28;20655;-86
2021/05/23 02:52:34;;;;;;;1.50;1.40;;;;;;;;;;4969035;28;20188;-86
2021/05/23 02:55:00;;;;;;;2.10;1.40;;;;;;;;;;4956486;28;20235;-86
2021/05/23 02:57:26;;;;;;;1.60;1.47;;;;;;;;;;4974608;28;20230;-86
2021/05/23 02:59:52;;;;;;;2.33;1.50;;;;;;;;;;4972955;28;20176;-86
2021/05/23 03:02:19;;;;;;;3.27;2.10;;;;;;;;;;4976635;28;20187;-86
2021/05/23 03:04:45;;;;;;;2.10;1.70;;;;;;;;;;4968091;28;20207;-86
2021/05/23 03:07:11;;;;;;;1.70;1.60;;;;;;;;;;4975811;28;20172;-85
2021/05/23 03:09:37;;;;;;;2.83;1.70;;;;;;;;;;4975148;28;20631;-85
2021/05/23 03:12:03;;;;;;;1.97;1.60;;;;;;;;;;4976924;28;20193;-86
2021/05/23 03:14:29;;;;;;;1.60;1.50;;;;;;;;;;4987389;28;20221;-86
2021/05/23 03:16:55;;;;;;;2.10;1.90;;;;;;;;;;4990021;28;20263;-86
2021/05/23 03:19:21;;;;;;;1.90;1.73;;;;;;;;;;4972112;28;20188;-86
2021/05/23 03:21:47;;;;;;;2.00;1.90;;;;;;;;;;4971427;28;20213;-86
2021/05/23 03:24:13;;;;;;;2.70;2.10;;;;;;;;;;4969807;28;20273;-85
2021/05/23 03:26:39;;;;;;;3.23;2.00;;;;;;;;;;4972831;28;20183;-86
2021/05/23 03:29:05;;;;;;;2.30;2.10;;;;;;;;;;4959934;28;20601;-85
2021/05/23 03:31:31;;;;;;;2.87;2.23;;;;;;;;;;4974486;28;20172;-85
2021/05/23 03:33:59;;;;;;;2.67;1.83;;;;;;;;;;4977491;28;20191;-86
2021/05/23 03:36:25;;;;;;;3.00;2.50;;;;;;;;;;4992106;28;20642;-85
2021/05/23 03:38:51;;;;;;;2.83;2.27;;;;;;;;;;4970910;28;20183;-85
2021/05/23 03:41:18;;;;;;;4.63;2.30;;;;;;;;;;4957777;28;20191;-85
2021/05/23 03:43:44;;;;;;;2.47;2.27;;;;;;;;;;5009668;28;20290;-85
2021/05/23 03:46:10;;;;;;;2.53;2.10;;;;;;;;;;4982165;28;20183;-85
2021/05/23 03:48:36;;;;;;;3.87;2.60;;;;;;;;;;4959985;28;20177;-85
2021/05/23 03:51:02;;;;;;;2.43;2.20;;;;;;;;;;4964787;28;20184;-86
2021/05/23 03:53:28;;;;;;;3.90;2.60;;;;;;;;;;4965460;28;20176;-87
2021/05/23 03:55:54;;;;;;;3.13;2.50;;;;;;;;;;4969639;28;20243;-87
2021/05/23 03:58:20;;;;;;;5.47;2.80;;;;;;;;;;4969246;28;20308;-87
2021/05/23 04:00:46;;;;;;;2.97;2.60;;;;;;;;;;4961163;28;20596;-87
2021/05/23 04:03:12;;;;;;;3.13;2.83;;;;;;;;;;4959962;28;20689;-87
2021/05/23 04:05:38;;;;;;;3.20;2.50;;;;;;;;;;4970339;28;20577;-87
2021/05/23 04:08:04;;;;;;;3.77;2.90;;;;;;;;;;4975599;28;20184;-87
2021/05/23 04:10:35;;;;;;;3.70;3.20;;;;;;;;;;4969829;28;20191;-87
2021/05/23 04:13:03;;;;;;;2.80;2.60;;;;;;;;;;4980886;28;20521;-87
2021/05/23 04:15:29;;;;;;;6.27;3.70;;;;;;;;;;4971300;28;20588;-87
2021/05/23 04:17:55;;;;;;;3.10;2.80;;;;;;;;;;4969462;28;20195;-87
2021/05/23 04:20:22;;;;;;;3.50;3.20;;;;;;;;;;4969101;28;20671;-87
2021/05/23 04:22:49;;;;;;;3.50;3.20;;;;;;;;;;4966552;28;20208;-87
2021/05/23 04:25:16;;;;;;;5.80;3.30;;;;;;;;;;4978933;28;20188;-87
2021/05/23 04:27:42;;;;;;;4.37;3.33;;;;;;;;;;4981100;28;20207;-87
2021/05/23 04:30:09;;;;;;;4.67;3.00;;;;;;;;;;4957891;28;20539;-87
2021/05/23 04:32:35;;;;;;;3.80;3.40;;;;;;;;;;4972912;28;20204;-87
2021/05/23 04:35:01;;;;;;;3.67;3.37;;;;;;;;;;4969410;28;20257;-87
2021/05/23 04:37:27;;;;;;;4.00;3.47;;;;;;;;;;4971644;28;20188;-87
2021/05/23 04:39:53;;;;;;;4.77;4.00;;;;;;;;;;4963412;28;20245;-87
2021/05/23 04:42:20;;;;;;;3.60;3.30;;;;;;;;;;4977670;28;20184;-87
2021/05/23 04:44:46;;;;;;;3.90;3.50;;;;;;;;;;4966999;28;20212;-87
2021/05/23 04:47:12;;;;;;;4.53;3.13;;;;;;;;;;4972739;28;20180;-87
2021/05/23 04:49:41;;;;;;;5.70;3.30;;;;;;;;;;4974127;28;20180;-87
2021/05/23 04:52:07;;;;;;;4.47;3.70;;;;;;;;;;4980887;28;20191;-87
2021/05/23 04:54:34;;;;;;;3.90;3.60;;;;;;;;;;4974152;28;20715;-87
2021/05/23 04:57:00;;;;;;;4.67;4.27;;;;;;;;;;4973243;28;20176;-87
2021/05/23 04:59:26;;;;;;;6.17;3.40;;;;;;;;;;4974137;28;20283;-85
2021/05/23 05:01:52;;;;;;;4.33;3.93;;;;;;;;;;4975915;28;20187;-87
2021/05/23 05:04:18;;;;;;;3.60;3.30;;;;;;;;;;4994886;28;20195;-87
2021/05/23 05:06:44;;;;;;;3.73;3.43;;;;;;;;;;4981239;28;20215;-85
2021/05/23 05:09:10;;;;;;;3.43;3.13;;;;;;;;;;4971981;28;20177;-85
2021/05/23 05:11:36;;;;;;;4.17;3.77;;;;;;;;;;4973089;28;20184;-85
2021/05/23 05:14:02;;;;;;;3.60;3.20;;;;;;;;;;4983838;28;20198;-85
2021/05/23 05:16:28;;;;;;;4.00;3.40;;;;;;;;;;4977585;28;20323;-85
2021/05/23 05:18:57;;;;;;;4.63;3.47;;;;;;;;;;4974192;28;20562;-85
2021/05/23 05:21:23;;;;;;;4.23;3.10;;;;;;;;;;4964013;28;20210;-85
2021/05/23 05:23:49;;;;;;;3.63;3.33;;;;;;;;;;4970577;28;20234;-85
2021/05/23 05:26:15;;;;;;;4.50;3.17;;;;;;;;;;4967306;28;20276;-85
2021/05/23 05:28:42;;;;;;;5.30;3.60;;;;;;;;;;4971146;28;20188;-85
2021/05/23 05:31:09;;;;;;;6.83;3.83;;;;;;;;;;4971558;28;20168;-85
2021/05/23 05:33:35;;;;;;;4.83;3.60;;;;;;;;;;4969957;28;20269;-85
2021/05/23 05:36:01;;;;;;;3.47;3.17;;;;;;;;;;4975460;28;20722;-85
2021/05/23 05:38:27;;;;;;;3.77;3.37;;;;;;;;;;5024664;28;20267;-85
2021/05/23 05:40:53;;;;;;;4.17;3.43;;;;;;;;;;4970897;28;20290;-85
2021/05/23 05:43:20;;;;;;;5.57;3.90;;;;;;;;;;4974105;28;20214;-85
2021/05/23 05:45:46;;;;;;;4.43;3.70;;;;;;;;;;4972457;28;20264;-85
2021/05/23 05:48:13;;;;;;;5.00;3.30;;;;;;;;;;4974157;28;20184;-83
2021/05/23 05:50:39;;;;;;;4.03;3.60;;;;;;;;;;4961898;28;20218;-83
2021/05/23 05:53:05;;;;;;;4.20;3.80;;;;;;;;;;4972845;28;20570;-84
2021/05/23 05:55:32;;;;;;;5.93;3.60;;;;;;;;;;4980274;28;20683;-83
2021/05/23 05:57:58;;;;;;;5.10;3.53;;;;;;;;;;4972134;28;20199;-83
2021/05/23 06:00:24;;;;;;;3.43;2.90;;;;;;;;;;4968292;28;20630;-85
2021/05/23 06:02:50;;;;;;;2.90;2.70;;;;;;;;;;4977413;28;20180;-86
2021/05/23 06:05:16;;;;;;;4.57;3.23;;;;;;;;;;5040884;28;20199;-86
2021/05/23 06:07:46;;;;;;;3.37;3.07;;;;;;;;;;4974633;28;20183;-86
2021/05/23 06:10:13;;;;;;;3.50;3.20;;;;;;;;;;4956144;28;20567;-85
2021/05/23 06:12:39;;;;;;;4.03;3.20;;;;;;;;;;4969387;28;20176;-86
2021/05/23 06:15:06;;;;;;;3.17;2.87;;;;;;;;;;4968752;28;20255;-86
2021/05/23 06:17:32;;;;;;;3.57;2.97;;;;;;;;;;4962413;28;20223;-85
2021/05/23 06:19:58;;;;;;;4.13;3.23;;;;;;;;;;4975179;28;20233;-86
2021/05/23 06:22:24;;;;;;;6.00;3.67;;;;;;;;;;4979717;28;20183;-86
2021/05/23 06:24:50;;;;;;;4.00;2.70;;;;;;;;;;4971330;28;20196;-86
2021/05/23 06:27:16;;;;;;;2.63;2.43;;;;;;;;;;4971496;28;20183;-86
2021/05/23 06:29:45;;;;;;;5.93;2.70;;;;;;;;;;4971144;28;20267;-85
2021/05/23 06:32:11;;;;;;;3.83;2.57;;;;;;;;;;4972243;28;20630;-85
2021/05/23 06:34:37;;;;;;;2.67;2.30;;;;;;;;;;4979047;28;20172;-85
2021/05/23 06:37:03;;;;;;;5.33;2.43;;;;;;;;;;4969161;28;20187;-85
2021/05/23 06:39:29;;;;;;;4.10;2.63;;;;;;;;;;4970510;28;20279;-84
2021/05/23 06:41:55;;;;;;;3.83;2.40;;;;;;;;;;4975172;28;20241;-86
2021/05/23 06:44:21;;;;;;;2.90;2.70;;;;;;;;;;5024299;28;20213;-86
2021/05/23 06:46:47;;;;;;;2.70;2.23;;;;;;;;;;4958066;28;20299;-86
2021/05/23 06:49:14;;;;;;;4.10;2.53;;;;;;;;;;4970156;28;20188;-86
2021/05/23 06:51:40;;;;;;;3.57;2.17;;;;;;;;;;4970484;28;20453;-86
2021/05/23 06:54:06;;;;;;;4.27;2.40;;;;;;;;;;4973041;28;20172;-86
2021/05/23 06:56:32;;;;;;;4.57;2.40;;;;;;;;;;4965283;28;20542;-85
2021/05/23 06:58:58;;;;;;;3.13;2.10;;;;;;;;;;4974092;28;20258;-85
2021/05/23 07:01:24;;;;;;;4.10;2.37;;;;;;;;;;4973300;28;20180;-84
2021/05/23 07:03:50;;;;;;;5.03;2.30;;;;;;;;;;4974444;28;20577;-84
2021/05/23 07:06:16;;;;;;;2.10;1.90;;;;;;;;;;4955280;28;20521;-84
2021/05/23 07:08:43;;;;;;;6.90;2.50;;;;;;;;;;4981501;28;20179;-84
2021/05/23 07:11:08;;;;;;;3.10;2.10;;;;;;;;;;4973378;28;20233;-84
2021/05/23 07:13:35;;;;;;;6.70;2.50;;;;;;;;;;5014396;28;20176;-85
2021/05/23 07:16:01;;;;;;;5.17;2.37;;;;;;;;;;4997193;28;20576;-85
2021/05/23 07:18:27;;;;;;;3.97;2.33;;;;;;;;;;4972298;28;20196;-84
2021/05/23 07:20:54;;;;;;;3.37;2.30;;;;;;;;;;4995949;28;20191;-85
2021/05/23 07:23:21;;;;;;;4.67;2.33;;;;;;;;;;4983574;28;20203;-81
2021/05/23 07:25:49;;;;;;;2.63;2.43;;;;;;;;;;5033277;28;20186;-85
2021/05/23 07:28:15;;;;;;;3.37;2.50;;;;;;;;;;4961607;28;20188;-85
2021/05/23 07:30:41;;;;;;;4.03;2.33;;;;;;;;;;4970718;28;20494;-86
2021/05/23 07:33:07;;;;;;;3.23;2.20;;;;;;;;;;4974605;28;20279;-85
2021/05/23 07:35:33;;;;;;;3.57;1.70;;;;;;;;;;4978672;28;20176;-85
2021/05/23 07:37:59;;;;;;;4.17;2.27;;;;;;;;;;4975699;28;20318;-85
2021/05/23 07:40:25;;;;;;;3.13;1.73;;;;;;;;;;4974019;28;20184;-86
2021/05/23 07:42:51;;;;;;;5.63;2.60;;;;;;;;;;4973670;28;20171;-86
2021/05/23 07:45:17;;;;;;;4.57;2.20;;;;;;;;;;4974677;28;20187;-86
2021/05/23 07:47:43;;;;;;;4.57;2.20;;;;;;;;;;4974621;28;20188;-86
2021/05/23 07:50:10;;;;;;;3.57;1.80;;;;;;;;;;4969016;28;20211;-86
2021/05/23 07:52:36;;;;;;;4.00;2.27;;;;;;;;;;4971709;28;20187;-86
2021/05/23 07:55:02;;;;;;;2.63;1.90;;;;;;;;;;4984532;28;20297;-86
2021/05/23 07:57:28;;;;;;;1.70;1.47;;;;;;;;;;4994556;28;20176;-86
2021/05/23 07:59:54;;;;;;;3.10;1.83;;;;;;;;;;4967204;28;20630;-85
2021/05/23 08:02:20;;;;;;;3.93;1.90;;;;;;;;;;4970913;28;20180;-86
2021/05/23 08:04:46;;;;;;;3.27;1.90;;;;;;;;;;4968145;28;20604;-86
2021/05/23 08:07:12;;;;;;;3.57;1.83;;;;;;;;;;5007314;28;20234;-85
2021/05/23 08:09:38;;;;;;;3.03;1.80;;;;;;;;;;4974190;28;20278;-86
2021/05/23 08:12:04;;;;;;;3.40;1.63;;;;;;;;;;4992527;28;20193;-86
2021/05/23 08:14:30;;;;;;;2.00;1.60;;;;;;;;;;4970306;28;20218;-81
2021/05/23 08:17:00;;;;;;;3.30;2.03;;;;;;;;;;4977291;28;20242;-85
2021/05/23 08:19:26;;;;;;;3.47;1.73;;;;;;;;;;4970648;28;20194;-85
2021/05/23 08:21:52;;;;;;;2.37;1.73;;;;;;;;;;4975843;28;20192;-86
2021/05/23 08:24:18;;;;;;;3.40;1.93;;;;;;;;;;5017262;28;20199;-86
2021/05/23 08:26:44;;;;;;;4.13;1.80;;;;;;;;;;5013761;28;20584;-85
2021/05/23 08:29:10;;;;;;;6.33;1.70;;;;;;;;;;5018351;28;20171;-86
2021/05/23 08:31:36;;;;;;;3.40;1.60;;;;;;;;;;4972762;28;20198;-86
2021/05/23 08:34:02;;;;;;;3.37;2.10;;;;;;;;;;4985140;28;20238;-86
2021/05/23 08:36:28;;;;;;;1.77;1.40;;;;;;;;;;4974260;28;20499;-86
2021/05/23 08:38:54;;;;;;;2.10;1.40;;;;;;;;;;4983741;28;20230;-85
2021/05/23 08:41:21;;;;;;;4.67;1.50;;;;;;;;;;4975088;28;20693;-86
2021/05/23 08:43:47;;;;;;;4.17;1.40;;;;;;;;;;4969362;28;20239;-86
2021/05/23 08:46:13;;;;;;;6.23;1.77;;;;;;;;;;4965198;28;20728;-86
2021/05/23 08:48:41;;;;;;;3.60;1.80;;;;;;;;;;4969652;28;20595;-86
2021/05/23 08:51:07;;;;;;;4.83;1.80;;;;;;;;;;4965789;28;20492;-85
2021/05/23 08:53:33;;;;;;;3.43;1.70;;;;;;;;;;4967473;28;20185;-85
2021/05/23 08:56:00;;;;;;;2.87;1.57;;;;;;;;;;4992946;28;20203;-86
2021/05/23 08:58:26;;;;;;;2.10;1.50;;;;;;;;;;4986434;28;20538;-86
2021/05/23 09:00:53;;;;;;;2.87;1.37;;;;;;;;;;4981015;28;20606;-85
2021/05/23 09:03:19;;;;;;;2.63;1.70;;;;;;;;;;4982881;28;20227;-85
2021/05/23 09:05:48;;;;;;;2.37;1.70;;;;;;;;;;4983655;28;20184;-86
2021/05/23 09:08:21;;;;;;;4.67;1.70;;;;;;;;;;5025384;28;20652;-86
2021/05/23 09:10:48;;;;;;;5.37;2.17;;;;;;;;;;4977610;28;20180;-86
2021/05/23 09:13:15;;;;;;;2.77;1.40;;;;;;;;;;4989739;28;20180;-86
2021/05/23 09:15:41;;;;;;;3.37;1.70;;;;;;;;;;4984797;28;20214;-86
2021/05/23 09:18:08;;;;;;;3.17;1.57;;;;;;;;;;4977789;28;20192;-85
2021/05/23 09:20:35;;;;;;;3.13;1.87;;;;;;;;;;4970737;28;20173;-85
2021/05/23 09:23:06;;;;;;;4.70;2.40;;;;;;;;;;4969927;28;20211;-85
2021/05/23 09:25:34;;;;;;;5.23;2.53;;;;;;;;;;4972689;28;20168;-85
2021/05/23 09:28:01;;;;;;;3.10;2.17;;;;;;;;;;4984700;28;20200;-80
2021/05/23 09:30:30;;;;;;;5.30;2.77;;;;;;;;;;4984959;28;20200;-83
2021/05/23 09:32:57;;;;;;;2.60;1.90;;;;;;;;;;4968555;28;21063;-84
2021/05/23 09:35:25;;;;;;;3.20;1.80;;;;;;;;;;4972876;28;20241;-82
2021/05/23 09:38:02;;;;;;;4.77;2.00;;;;;;;;;;4976370;28;20625;-85
2021/05/23 09:40:30;;;;;;;2.53;1.50;;;;;;;;;;4975852;28;20677;-85
2021/05/23 09:42:57;;;;;;;4.47;2.07;;;;;;;;;;4992887;28;20179;-86
2021/05/23 09:45:24;;;;;;;4.77;1.60;;;;;;;;;;4974247;28;20210;-84
2021/05/23 09:47:51;;;;;;;4.07;1.37;;;;;;;;;;4975365;28;20288;-79
2021/05/23 09:50:17;;;;;;;2.40;1.33;;;;;;;;;;5004879;28;20509;-78
2021/05/23 09:52:44;;;;;;;3.83;2.40;;;;;;;;;;4996744;28;20179;-84
2021/05/23 09:55:10;;;;;;;2.67;1.47;;;;;;;;;;4975379;28;20180;-85
2021/05/23 09:57:37;;;;;;;3.77;1.40;;;;;;;;;;5001130;28;20271;-85
2021/05/23 10:00:11;;;;;;;4.13;1.50;;;;;;;;;;5002450;28;20212;-85
2021/05/23 10:02:52;;;;;;;5.10;1.77;;;;;;;;;;4990098;28;20654;-85
2021/05/23 10:05:18;;;;;;;3.10;1.30;;;;;;;;;;4967655;28;20525;-86
2021/05/23 10:07:44;;;;;;;6.63;1.93;;;;;;;;;;4976236;28;20188;-86
2021/05/23 10:10:10;;;;;;;2.23;1.20;;;;;;;;;;4998513;28;20272;-85
2021/05/23 10:12:37;;;;;;;7.27;1.70;;;;;;;;;;5004509;28;20176;-78
2021/05/23 10:15:05;;;;;;;5.17;1.50;;;;;;;;;;5015604;28;20196;-78
2021/05/23 10:17:31;;;;;;;3.93;1.40;;;;;;;;;;4984933;28;20235;-80
2021/05/23 10:19:57;;;;;;;2.60;1.50;;;;;;;;;;4965648;28;20283;-77
2021/05/23 10:22:26;;;;;;;4.07;2.13;;;;;;;;;;4989445;28;20184;-85
2021/05/23 10:24:54;;;;;;;2.90;1.20;;;;;;;;;;4963005;28;20212;-85
2021/05/23 10:27:24;;;;;;;3.70;1.40;;;;;;;;;;4979042;28;20180;-85
2021/05/23 10:29:52;;;;;;;5.80;1.57;;;;;;;;;;5011348;28;20267;-85
2021/05/23 10:32:19;;;;;;;3.23;1.30;;;;;;;;;;4966407;28;20195;-86
2021/05/23 10:34:47;;;;;;;4.43;1.60;;;;;;;;;;4982844;28;20825;-85
2021/05/23 10:37:14;;;;;;;3.93;1.40;;;;;;;;;;4971502;28;20222;-86
2021/05/23 10:39:42;;;;;;;2.60;1.20;;;;;;;;;;4970944;28;20280;-86
2021/05/23 10:42:13;;;;;;;1.73;1.00;;;;;;;;;;4972949;28;20191;-86
2021/05/23 10:44:43;;;;;;;2.03;1.33;;;;;;;;;;4968295;28;20204;-87
2021/05/23 10:47:10;;;;;;;2.27;1.00;;;;;;;;;;4969469;28;20191;-87
2021/05/23 10:49:36;;;;;;;3.13;1.43;;;;;;;;;;4965763;28;20188;-86
2021/05/23 10:52:03;;;;;;;2.60;1.20;;;;;;;;;;4991294;28;20184;-87
2021/05/23 10:54:29;;;;;;;3.43;1.40;;;;;;;;;;4983465;28;20168;-85
2021/05/23 10:56:59;;;;;;;2.93;1.73;;;;;;;;;;4976028;28;20188;-79
2021/05/23 10:59:30;;;;;;;3.00;1.50;;;;;;;;;;4965490;28;20184;-85
2021/05/23 11:01:56;;;;;;;3.10;1.70;;;;;;;;;;4966105;28;20176;-79
2021/05/23 11:04:23;;;;;;;2.67;1.50;;;;;;;;;;4982006;28;20291;-78
2021/05/23 11:06:49;;;;;;;2.33;1.40;;;;;;;;;;4967338;28;20224;-78
2021/05/23 11:09:17;;;;;;;2.83;1.40;;;;;;;;;;4971464;28;20184;-79
2021/05/23 11:11:44;;;;;;;1.77;1.50;;;;;;;;;;4962300;28;20196;-78
2021/05/23 11:14:12;;;;;;;4.33;1.80;;;;;;;;;;4970086;28;20179;-80
2021/05/23 11:16:58;;;;;;;4.77;1.73;;;;;;;;;;4958267;28;20216;-88
2021/05/23 11:19:25;;;;;;;2.90;1.70;;;;;;;;;;4971278;28;20207;-87
2021/05/23 11:21:54;;;;;;;3.77;1.73;;;;;;;;;;4973589;28;20195;-86
2021/05/23 11:24:26;;;;;;;2.23;1.60;;;;;;;;;;4980586;28;20212;-87
2021/05/23 11:26:52;;;;;;;2.93;1.40;;;;;;;;;;4974381;28;20618;-87
2021/05/23 11:29:19;;;;;;;1.40;1.30;;;;;;;;;;4973541;28;20184;-86
2021/05/23 11:31:49;;;;;;;4.13;1.60;;;;;;;;;;4971254;28;20187;-89
2021/05/23 11:34:18;;;;;;;3.00;1.70;;;;;;;;;;5023326;28;20187;-87
2021/05/23 11:36:44;;;;;;;5.07;1.63;;;;;;;;;;4970863;28;20521;-88
2021/05/23 11:39:12;;;;;;;3.40;1.30;;;;;;;;;;4987179;28;20598;-88
2021/05/23 11:41:42;;;;;;;2.80;1.60;;;;;;;;;;4963586;28;20180;-87
2021/05/23 11:44:14;;;;;;;3.20;1.77;;;;;;;;;;4973797;28;20219;-88
2021/05/23 11:46:42;;;;;;;2.33;1.50;;;;;;;;;;4964373;28;20210;-85
2021/05/23 11:49:08;;;;;;;2.23;1.47;;;;;;;;;;4966723;28;20184;-83
2021/05/23 11:51:35;;;;;;;5.03;1.53;;;;;;;;;;4973081;28;20192;-83
2021/05/23 11:54:02;;;;;;;2.07;1.83;;;;;;;;;;4971044;28;20214;-83
2021/05/23 11:56:32;;;;;;;3.33;1.40;;;;;;;;;;4972840;28;20279;-84
2021/05/23 11:58:59;;;;;;;3.57;1.83;;;;;;;;;;4975516;28;20312;-86
2021/05/23 12:01:27;;;;;;;3.33;1.70;;;;;;;;;;5005729;28;20179;-85
2021/05/23 12:04:22;;;;;;;3.10;1.67;;;;;;;;;;5008567;28;20631;-86
2021/05/23 12:06:50;;;;;;;3.07;1.50;;;;;;;;;;5033713;28;20344;-85
2021/05/23 12:09:17;;;;;;;3.20;1.87;;;;;;;;;;4962271;28;20168;-79
2021/05/23 12:11:45;;;;;;;4.03;1.90;;;;;;;;;;4964082;28;20188;-80
2021/05/23 12:14:20;;;;;;;2.47;1.37;;;;;;;;;;4971129;28;20183;-78
2021/05/23 12:16:48;;;;;;;3.50;1.70;;;;;;;;;;4966878;28;20222;-78
2021/05/23 12:19:14;;;;;;;3.17;1.50;;;;;;;;;;4973894;28;20195;-79
2021/05/23 12:21:40;;;;;;;3.97;1.80;;;;;;;;;;4959949;28;20551;-80
2021/05/23 12:24:06;;;;;;;3.10;1.30;;;;;;;;;;4975017;28;20303;-80
2021/05/23 12:26:33;;;;;;;3.83;1.40;;;;;;;;;;4966440;28;20537;-78
2021/05/23 12:28:59;;;;;;;5.10;1.50;;;;;;;;;;4967314;28;20191;-78
2021/05/23 12:31:26;;;;;;;2.00;1.23;;;;;;;;;;5033700;28;20189;-78
2021/05/23 12:33:53;;;;;;;3.63;1.60;;;;;;;;;;4969917;28;20198;-78
2021/05/23 12:36:20;;;;;;;2.10;1.23;;;;;;;;;;4961440;28;20983;-78
2021/05/23 12:38:59;;;;;;;4.80;1.93;;;;;;;;;;4969990;28;20184;-78
2021/05/23 12:41:39;;;;;;;5.00;1.70;;;;;;;;;;4967436;28;20185;-78
2021/05/23 12:44:16;;;;;;;2.60;1.47;;;;;;;;;;4966976;28;20235;-78
2021/05/23 12:46:42;;;;;;;4.23;1.53;;;;;;;;;;4954674;28;20199;-78
2021/05/23 12:49:14;;;;;;;3.30;1.33;;;;;;;;;;4970918;28;20187;-77
2021/05/23 12:51:42;;;;;;;2.13;1.10;;;;;;;;;;4978920;28;20685;-77
2021/05/23 12:54:08;;;;;;;2.30;1.40;;;;;;;;;;4972080;28;20268;-77
2021/05/23 12:56:36;;;;;;;5.37;1.40;;;;;;;;;;4966901;28;20191;-78
2021/05/23 12:59:02;;;;;;;3.70;2.57;;;;;;;;;;4966518;28;20227;-78
2021/05/23 13:01:34;;;;;;;6.63;2.40;;;;;;;;;;4970391;28;20180;-78
2021/05/23 13:04:01;;;;;;;2.57;1.73;;;;;;;;;;4969357;28;20646;-78
2021/05/23 13:06:28;;;;;;;3.97;1.83;;;;;;;;;;4971445;28;20608;-78
2021/05/23 13:08:58;;;;;;;1.97;1.30;;;;;;;;;;4966846;28;20183;-78
2021/05/23 13:11:24;;;;;;;1.33;1.20;;;;;;;;;;4970310;28;20884;-79
2021/05/23 13:13:50;;;;;;;1.27;1.00;;;;;;;;;;4973513;28;20195;-78
2021/05/23 13:16:16;;;;;;;2.30;1.10;;;;;;;;;;4970661;28;20223;-79
2021/05/23 13:18:43;;;;;;;1.73;1.23;;;;;;;;;;4973006;28;20184;-80
2021/05/23 13:21:19;;;;;;;2.90;1.43;;;;;;;;;;4972504;28;20607;-79
2021/05/23 13:23:46;;;;;;;2.93;2.03;;;;;;;;;;4967070;28;20207;-78
2021/05/23 13:26:23;;;;;;;1.77;1.20;;;;;;;;;;4969194;28;20203;-79
2021/05/23 13:28:49;;;;;;;1.83;1.30;;;;;;;;;;4964233;28;20198;-80
2021/05/23 13:31:16;;;;;;;2.47;1.57;;;;;;;;;;4971928;28;20180;-82
2021/05/23 13:33:42;;;;;;;3.17;1.30;;;;;;;;;;4960523;28;20434;-83
2021/05/23 13:36:09;;;;;;;2.87;1.40;;;;;;;;;;4954718;28;20229;-82
2021/05/23 13:38:35;;;;;;;1.77;1.33;;;;;;;;;;4971457;28;20180;-82
2021/05/23 13:41:01;;;;;;;2.97;1.70;;;;;;;;;;4967000;28;20514;-82
2021/05/23 13:43:27;;;;;;;2.03;1.60;;;;;;;;;;4971521;28;20203;-83
2021/05/23 13:45:56;;;;;;;1.70;1.13;;;;;;;;;;4971563;28;20196;-82
2021/05/23 13:48:23;;;;;;;1.57;1.10;;;;;;;;;;4971621;28;20176;-82
2021/05/23 13:50:49;;;;;;;2.83;1.10;;;;;;;;;;4977547;28;20171;-82
2021/05/23 13:53:15;;;;;;;1.77;1.40;;;;;;;;;;4969091;28;20173;-82
2021/05/23 13:55:42;;;;;;;1.07;0.97;;;;;;;;;;4989932;28;20180;-82
2021/05/23 13:58:08;;;;;;;1.47;1.10;;;;;;;;;;4970454;28;20183;-81
2021/05/23 14:00:35;;;;;;;1.60;0.97;;;;;;;;;;4962205;28;20251;-81
2021/05/23 14:03:21;;;;;;;1.87;1.37;;;;;;;;;;4968491;28;20636;-80
2021/05/23 14:05:48;;;;;;;1.83;1.20;;;;;;;;;;4970984;28;20454;-80
2021/05/23 14:08:14;;;;;;;1.63;1.10;;;;;;;;;;4972404;28;20279;-81
2021/05/23 14:10:41;;;;;;;1.80;1.20;;;;;;;;;;4970856;28;20180;-81
2021/05/23 14:13:07;;;;;;;4.00;1.80;;;;;;;;;;4971838;28;20192;-80
2021/05/23 14:15:34;;;;;;;2.80;1.10;;;;;;;;;;5010606;28;20223;-79
2021/05/23 14:18:00;;;;;;;1.93;1.20;;;;;;;;;;5028157;28;20188;-79
2021/05/23 14:20:26;;;;;;;3.70;1.70;;;;;;;;;;4967545;28;20184;-78
2021/05/23 14:22:54;;;;;;;2.53;1.33;;;;;;;;;;4967335;28;20241;-78
2021/05/23 14:25:21;;;;;;;2.30;1.20;;;;;;;;;;4965873;28;20234;-79
2021/05/23 14:27:48;;;;;;;5.97;1.60;;;;;;;;;;4970806;28;20285;-79
2021/05/23 14:30:14;;;;;;;2.77;1.13;;;;;;;;;;4967813;28;20176;-79
2021/05/23 14:32:40;;;;;;;2.63;1.30;;;;;;;;;;4971786;28;20184;-78
2021/05/23 14:35:07;;;;;;;2.30;1.47;;;;;;;;;;4971107;28;20215;-78
2021/05/23 14:37:33;;;;;;;1.63;1.20;;;;;;;;;;4968837;28;20191;-79
2021/05/23 14:40:01;;;;;;;4.43;1.53;;;;;;;;;;4972123;28;20180;-78
2021/05/23 14:42:27;;;;;;;1.80;1.00;;;;;;;;;;4975398;28;20673;-78
2021/05/23 14:44:53;;;;;;;1.30;1.20;;;;;;;;;;4969367;28;20277;-81